createdAt,value
2022-11-16T00:02:13.167Z,12.13
2022-11-16T00:04:40.257Z,12.04
2022-11-16T00:07:07.189Z,12.04
2022-11-16T00:09:33.970Z,11.99
2022-11-16T00:12:04.641Z,11.94
2022-11-16T00:14:36.076Z,11.80
2022-11-16T00:17:03.591Z,11.75
2022-11-16T00:19:30.439Z,11.77
2022-11-16T00:21:57.124Z,11.74
2022-11-16T00:24:23.754Z,11.76
2022-11-16T00:26:51.034Z,11.71
2022-11-16T00:29:22.032Z,11.71
2022-11-16T00:31:49.236Z,11.61
2022-11-16T00:34:16.330Z,11.63
2022-11-16T00:36:42.973Z,11.64
2022-11-16T00:39:15.382Z,11.59
2022-11-16T00:41:43.166Z,11.54
2022-11-16T00:44:10.427Z,11.58
2022-11-16T00:46:37.496Z,11.46
2022-11-16T00:49:05.488Z,11.55
2022-11-16T00:51:32.917Z,11.53
2022-11-16T00:53:59.472Z,11.52
2022-11-16T00:56:25.955Z,11.46
2022-11-16T00:58:52.506Z,11.48
2022-11-16T01:01:19.320Z,11.46
2022-11-16T01:03:46.017Z,11.38
2022-11-16T01:06:14.233Z,11.44
2022-11-16T01:08:42.043Z,11.37
2022-11-16T01:11:31.137Z,11.39
2022-11-16T01:13:57.811Z,11.39
2022-11-16T01:16:27.227Z,11.33
2022-11-16T01:18:55.047Z,11.36
2022-11-16T01:21:22.616Z,11.32
2022-11-16T01:23:49.620Z,11.30
2022-11-16T01:26:16.033Z,11.24
2022-11-16T01:28:42.568Z,11.26
2022-11-16T01:31:10.542Z,11.18
2022-11-16T01:33:37.467Z,11.12
2022-11-16T01:36:14.293Z,11.18
2022-11-16T01:38:45.593Z,11.13
2022-11-16T01:41:18.531Z,11.07
2022-11-16T01:43:50.726Z,11.12
2022-11-16T01:46:17.147Z,11.03
2022-11-16T01:48:44.184Z,11.06
2022-11-16T01:51:10.757Z,11.03
2022-11-16T01:53:37.633Z,11.00
2022-11-16T01:56:04.830Z,10.95
2022-11-16T01:58:31.636Z,10.95
2022-11-16T02:00:58.379Z,10.93
2022-11-16T02:03:25.777Z,10.88
2022-11-16T02:06:18.556Z,10.81
2022-11-16T02:09:19.629Z,10.87
2022-11-16T02:12:05.311Z,10.83
2022-11-16T02:14:50.431Z,10.81
2022-11-16T02:18:04.136Z,10.80
2022-11-16T02:20:46.637Z,10.75
2022-11-16T02:23:15.790Z,10.70
2022-11-16T02:26:01.041Z,10.64
2022-11-16T02:29:18.739Z,10.70
2022-11-16T02:31:51.919Z,10.57
2022-11-16T02:34:21.166Z,10.55
2022-11-16T02:36:53.177Z,10.57
2022-11-16T02:39:24.683Z,10.51
2022-11-16T02:41:53.143Z,10.50
2022-11-16T02:44:28.773Z,10.48
2022-11-16T02:46:59.209Z,10.37
2022-11-16T02:49:27.502Z,10.43
2022-11-16T02:51:54.759Z,10.40
2022-11-16T02:54:23.573Z,10.34
2022-11-16T02:57:22.269Z,10.43
2022-11-16T02:59:54.284Z,10.38
2022-11-16T03:02:46.879Z,10.41
2022-11-16T03:05:35.447Z,10.33
2022-11-16T03:08:13.679Z,10.32
2022-11-16T03:11:02.037Z,10.33
2022-11-16T03:13:32.618Z,10.28
2022-11-16T03:16:01.049Z,10.18
2022-11-16T03:18:29.097Z,10.28
2022-11-16T03:21:05.482Z,10.28
2022-11-16T03:23:32.419Z,10.25
2022-11-16T03:26:05.181Z,10.31
2022-11-16T03:28:46.785Z,10.20
2022-11-16T03:31:24.313Z,10.32
2022-11-16T03:33:56.086Z,10.26
2022-11-16T03:36:32.819Z,10.31
2022-11-16T03:39:05.593Z,10.30
2022-11-16T03:41:35.368Z,10.32
2022-11-16T03:44:02.271Z,10.33
2022-11-16T03:46:28.971Z,10.23
2022-11-16T03:49:00.721Z,10.29
2022-11-16T03:51:27.549Z,10.30
2022-11-16T03:53:56.991Z,10.34
2022-11-16T03:56:23.511Z,10.28
2022-11-16T03:58:49.982Z,10.31
2022-11-16T04:01:16.442Z,10.31
2022-11-16T04:03:43.003Z,10.24
2022-11-16T04:06:29.582Z,10.28
2022-11-16T04:09:28.703Z,10.27
2022-11-16T04:12:14.024Z,10.35
2022-11-16T04:14:59.400Z,10.26
2022-11-16T04:17:45.070Z,10.34
2022-11-16T04:20:32.953Z,10.31
2022-11-16T04:23:21.103Z,10.33
2022-11-16T04:25:50.069Z,10.31
2022-11-16T04:28:19.776Z,10.35
2022-11-16T04:31:10.896Z,10.33
2022-11-16T04:34:03.671Z,10.35
2022-11-16T04:36:48.573Z,10.29
2022-11-16T04:39:15.174Z,10.33
2022-11-16T04:41:59.900Z,10.34
2022-11-16T04:44:46.299Z,10.31
2022-11-16T04:47:12.686Z,10.26
2022-11-16T04:49:39.473Z,10.33
2022-11-16T04:52:06.137Z,10.31
2022-11-16T04:54:32.657Z,10.30
2022-11-16T04:56:59.070Z,10.24
2022-11-16T04:59:25.507Z,10.32
2022-11-16T05:02:09.971Z,10.29
2022-11-16T05:04:41.252Z,10.35
2022-11-16T05:07:13.236Z,10.32
2022-11-16T05:09:42.800Z,10.34
2022-11-16T05:12:11.487Z,10.36
2022-11-16T05:14:37.934Z,10.36
2022-11-16T05:17:04.503Z,10.33
2022-11-16T05:19:49.310Z,10.29
2022-11-16T05:22:15.726Z,10.32
2022-11-16T05:24:42.227Z,10.26
2022-11-16T05:27:12.772Z,10.27
2022-11-16T05:29:39.938Z,10.14
2022-11-16T05:32:07.287Z,10.25
2022-11-16T05:34:34.359Z,10.23
2022-11-16T05:37:00.780Z,10.17
2022-11-16T05:39:27.304Z,10.13
2022-11-16T05:41:53.914Z,10.10
2022-11-16T05:44:20.792Z,10.12
2022-11-16T05:46:47.422Z,10.07
2022-11-16T05:49:14.557Z,10.09
2022-11-16T05:51:43.024Z,10.07
2022-11-16T05:54:13.601Z,10.05
2022-11-16T05:56:40.364Z,10.04
2022-11-16T05:59:07.847Z,10.01
2022-11-16T06:01:35.634Z,9.94
2022-11-16T06:04:02.864Z,9.96
2022-11-16T06:06:29.664Z,9.94
2022-11-16T06:08:56.264Z,9.92
2022-11-16T06:11:22.889Z,9.95
2022-11-16T06:13:49.491Z,9.89
2022-11-16T06:16:15.889Z,9.88
2022-11-16T06:18:45.079Z,9.88
2022-11-16T06:21:12.791Z,9.85
2022-11-16T06:23:39.503Z,9.93
2022-11-16T06:26:06.496Z,9.86
2022-11-16T06:28:34.203Z,9.93
2022-11-16T06:31:01.317Z,9.93
2022-11-16T06:33:32.331Z,9.93
2022-11-16T06:36:00.145Z,9.93
2022-11-16T06:38:27.521Z,9.93
2022-11-16T06:40:56.550Z,9.96
2022-11-16T06:43:24.376Z,9.95
2022-11-16T06:45:55.969Z,10.00
2022-11-16T06:48:23.356Z,9.91
2022-11-16T06:50:51.802Z,9.98
2022-11-16T06:53:19.926Z,9.96
2022-11-16T06:55:48.391Z,9.94
2022-11-16T06:58:15.086Z,9.96
2022-11-16T07:00:41.525Z,9.88
2022-11-16T07:03:08.320Z,9.91
2022-11-16T07:05:38.465Z,9.99
2022-11-16T07:08:04.862Z,9.97
2022-11-16T07:10:31.275Z,9.93
2022-11-16T07:12:57.744Z,9.93
2022-11-16T07:15:24.434Z,9.95
2022-11-16T07:17:50.811Z,9.89
2022-11-16T07:20:18.514Z,9.92
2022-11-16T07:22:45.090Z,9.97
2022-11-16T07:25:11.522Z,9.96
2022-11-16T07:27:37.976Z,9.91
2022-11-16T07:30:05.550Z,9.99
2022-11-16T07:32:32.119Z,9.97
2022-11-16T07:34:59.617Z,9.98
2022-11-16T07:37:26.541Z,10.02
2022-11-16T07:39:53.203Z,10.02
2022-11-16T07:42:19.850Z,10.04
2022-11-16T07:44:46.369Z,10.02
2022-11-16T07:47:12.822Z,9.98
2022-11-16T07:49:39.488Z,9.99
2022-11-16T07:52:09.466Z,10.04
2022-11-16T07:54:36.715Z,9.97
2022-11-16T07:57:03.274Z,10.03
2022-11-16T07:59:29.832Z,10.06
2022-11-16T08:01:56.590Z,10.03
2022-11-16T08:04:23.470Z,9.98
2022-11-16T08:06:51.738Z,10.01
2022-11-16T08:09:18.355Z,10.00
2022-11-16T08:11:44.959Z,9.99
2022-11-16T08:14:11.739Z,10.05
2022-11-16T08:16:38.380Z,10.08
2022-11-16T08:19:04.821Z,10.11
2022-11-16T08:21:31.250Z,10.08
2022-11-16T08:23:58.847Z,10.14
2022-11-16T08:26:25.951Z,10.16
2022-11-16T08:28:53.858Z,10.20
2022-11-16T08:31:24.189Z,10.19
2022-11-16T08:33:51.915Z,10.35
2022-11-16T08:36:19.005Z,10.23
2022-11-16T08:38:47.400Z,10.16
2022-11-16T08:41:14.200Z,10.19
2022-11-16T08:43:40.834Z,10.14
2022-11-16T08:46:09.530Z,10.23
2022-11-16T08:48:37.389Z,10.14
2022-11-16T08:51:21.780Z,10.20
2022-11-16T08:53:49.850Z,10.17
2022-11-16T08:56:18.676Z,10.20
2022-11-16T08:58:53.782Z,10.20
2022-11-16T09:01:26.192Z,10.19
2022-11-16T09:03:53.929Z,10.22
2022-11-16T09:06:20.529Z,10.18
2022-11-16T09:08:47.057Z,10.13
2022-11-16T09:11:16.805Z,10.23
2022-11-16T09:13:44.986Z,10.27
2022-11-16T09:16:11.682Z,10.24
2022-11-16T09:18:38.597Z,10.25
2022-11-16T09:21:05.113Z,10.17
2022-11-16T09:23:31.547Z,10.31
2022-11-16T09:26:03.406Z,10.31
2022-11-16T09:28:30.701Z,10.34
2022-11-16T09:31:01.969Z,10.31
2022-11-16T09:33:30.584Z,10.37
2022-11-16T09:36:01.708Z,10.32
2022-11-16T09:38:46.627Z,10.36
2022-11-16T09:41:14.840Z,10.35
2022-11-16T09:43:53.664Z,10.34
2022-11-16T09:46:29.192Z,10.33
2022-11-16T09:49:02.932Z,10.31
2022-11-16T09:51:33.618Z,10.27
2022-11-16T09:54:14.997Z,10.28
2022-11-16T09:56:42.900Z,10.23
2022-11-16T09:59:17.845Z,10.25
2022-11-16T10:01:55.104Z,10.25
2022-11-16T10:04:43.807Z,10.16
2022-11-16T10:07:22.640Z,10.14
2022-11-16T10:09:49.699Z,10.11
2022-11-16T10:12:31.346Z,10.08
2022-11-16T10:15:17.103Z,10.10
2022-11-16T10:18:09.636Z,10.08
2022-11-16T10:20:54.725Z,10.06
2022-11-16T10:23:41.876Z,9.99
2022-11-16T10:26:32.116Z,9.94
2022-11-16T10:29:33.732Z,9.97
2022-11-16T10:32:18.816Z,9.99
2022-11-16T10:34:49.349Z,9.92
2022-11-16T10:37:15.945Z,9.91
2022-11-16T10:39:42.816Z,9.92
2022-11-16T10:42:18.316Z,9.95
2022-11-16T10:44:49.246Z,9.95
2022-11-16T10:47:28.183Z,10.01
2022-11-16T10:50:01.678Z,9.93
2022-11-16T10:52:28.425Z,9.95
2022-11-16T10:54:54.955Z,9.87
2022-11-16T10:57:23.747Z,9.90
2022-11-16T10:59:55.376Z,10.00
2022-11-16T11:02:24.728Z,10.01
2022-11-16T11:05:17.554Z,10.05
2022-11-16T11:07:55.325Z,9.96
2022-11-16T11:10:34.302Z,9.96
2022-11-16T11:13:12.598Z,10.03
2022-11-16T11:15:40.639Z,10.01
2022-11-16T11:18:20.011Z,10.05
2022-11-16T11:21:09.933Z,10.07
2022-11-16T11:23:44.039Z,10.03
2022-11-16T11:26:24.885Z,10.03
2022-11-16T11:28:51.597Z,9.97
2022-11-16T11:31:25.932Z,10.04
2022-11-16T11:33:59.391Z,10.08
2022-11-16T11:36:33.130Z,10.02
2022-11-16T11:39:05.688Z,10.09
2022-11-16T11:41:43.513Z,10.11
2022-11-16T11:44:13.034Z,10.08
2022-11-16T11:47:35.163Z,10.10
2022-11-16T11:49:38.467Z,10.11
2022-11-16T11:52:14.050Z,10.06
2022-11-16T11:54:46.722Z,10.05
2022-11-16T11:57:20.516Z,10.15
2022-11-16T11:59:48.097Z,10.10
2022-11-16T12:02:35.617Z,10.23
2022-11-16T12:05:15.326Z,10.23
2022-11-16T12:07:50.923Z,10.15
2022-11-16T12:10:46.456Z,10.32
2022-11-16T12:13:57.904Z,10.33
2022-11-16T12:16:38.487Z,10.24
2022-11-16T12:19:14.494Z,10.37
2022-11-16T12:22:06.905Z,10.34
2022-11-16T12:25:11.991Z,10.40
2022-11-16T12:28:10.037Z,10.45
2022-11-16T12:30:58.821Z,10.44
2022-11-16T12:34:03.987Z,10.45
2022-11-16T12:36:39.426Z,10.43
2022-11-16T12:39:14.875Z,10.46
2022-11-16T12:41:59.678Z,10.50
2022-11-16T12:44:40.738Z,10.45
2022-11-16T12:47:23.622Z,10.53
2022-11-16T12:50:08.632Z,10.51
2022-11-16T12:53:18.997Z,10.60
2022-11-16T12:56:09.206Z,10.70
2022-11-16T12:58:38.611Z,10.60
2022-11-16T13:01:25.324Z,10.63
2022-11-16T13:04:12.775Z,10.62
2022-11-16T13:07:11.420Z,10.53
2022-11-16T13:09:44.543Z,10.60
2022-11-16T13:12:16.915Z,10.63
2022-11-16T13:14:47.474Z,10.62
2022-11-16T13:17:28.003Z,10.66
2022-11-16T13:20:29.800Z,10.68
2022-11-16T13:23:07.602Z,10.63
2022-11-16T13:25:41.724Z,10.68
2022-11-16T13:28:33.902Z,10.67
2022-11-16T13:31:12.081Z,10.63
2022-11-16T13:33:52.619Z,10.69
2022-11-16T13:36:39.423Z,10.71
2022-11-16T13:39:13.747Z,10.62
2022-11-16T13:41:44.833Z,10.65
2022-11-16T13:44:17.675Z,10.63
2022-11-16T13:46:56.766Z,10.62
2022-11-16T13:49:33.192Z,10.58
2022-11-16T13:52:21.356Z,10.58
2022-11-16T13:54:53.073Z,10.61
2022-11-16T13:57:29.759Z,10.57
2022-11-16T14:00:02.426Z,10.61
2022-11-16T14:02:36.263Z,10.58
2022-11-16T14:05:04.617Z,10.52
2022-11-16T14:07:47.186Z,10.56
2022-11-16T14:10:49.029Z,10.60
2022-11-16T14:13:42.109Z,10.55
2022-11-16T14:16:17.824Z,10.50
2022-11-16T14:18:59.899Z,10.45
2022-11-16T14:21:42.315Z,10.44
2022-11-16T14:24:18.009Z,10.43
2022-11-16T14:26:53.521Z,10.39
2022-11-16T14:29:57.628Z,10.40
2022-11-16T14:32:35.827Z,10.35
2022-11-16T14:35:06.903Z,10.32
2022-11-16T14:37:38.519Z,10.29
2022-11-16T14:40:16.760Z,10.27
2022-11-16T14:43:15.458Z,10.34
2022-11-16T14:45:40.986Z,10.32
2022-11-16T14:48:18.391Z,10.32
2022-11-16T14:51:04.575Z,10.27
2022-11-16T14:53:34.142Z,10.30
2022-11-16T14:56:21.181Z,10.33
2022-11-16T14:58:58.882Z,10.29
2022-11-16T15:01:39.206Z,10.25
2022-11-16T15:04:10.535Z,10.40
2022-11-16T15:06:42.690Z,10.26
2022-11-16T15:09:16.671Z,10.26
2022-11-16T15:12:05.244Z,10.25
2022-11-16T15:14:35.450Z,10.20
2022-11-16T15:17:01.821Z,10.35
2022-11-16T15:19:31.900Z,10.19
2022-11-16T15:22:03.334Z,10.19
2022-11-16T15:24:32.525Z,10.17
2022-11-16T15:27:25.717Z,10.15
2022-11-16T15:29:52.277Z,10.08
2022-11-16T15:32:18.959Z,10.02
2022-11-16T15:34:55.285Z,10.08
2022-11-16T15:37:31.549Z,10.11
2022-11-16T15:39:59.972Z,10.04
2022-11-16T15:42:28.171Z,10.07
2022-11-16T15:44:56.013Z,10.03
2022-11-16T15:47:23.642Z,10.05
2022-11-16T15:49:52.881Z,10.08
2022-11-16T15:52:44.819Z,10.10
2022-11-16T15:55:49.434Z,10.10
2022-11-16T15:58:30.610Z,10.05
2022-11-16T16:00:59.006Z,10.03
2022-11-16T16:03:28.594Z,9.96
2022-11-16T16:05:55.710Z,9.95
2022-11-16T16:08:39.912Z,10.04
2022-11-16T16:11:27.621Z,10.02
2022-11-16T16:14:02.436Z,9.97
2022-11-16T16:16:36.298Z,10.00
2022-11-16T16:19:27.152Z,9.98
2022-11-16T16:21:53.703Z,9.98
2022-11-16T16:24:41.889Z,10.01
2022-11-16T16:27:25.115Z,9.97
2022-11-16T16:29:53.538Z,9.95
2022-11-16T16:32:27.452Z,9.96
2022-11-16T16:34:55.791Z,9.83
2022-11-16T16:37:22.812Z,9.91
2022-11-16T16:39:49.305Z,9.86
2022-11-16T16:42:17.397Z,9.88
2022-11-16T16:44:45.555Z,9.90
2022-11-16T16:47:12.623Z,9.84
2022-11-16T16:49:39.712Z,9.90
2022-11-16T16:52:07.045Z,9.87
2022-11-16T16:54:33.789Z,9.88
2022-11-16T16:57:02.254Z,9.81
2022-11-16T16:59:32.077Z,9.82
2022-11-16T17:01:59.305Z,9.82
2022-11-16T17:04:26.169Z,9.75
2022-11-16T17:06:52.967Z,9.71
2022-11-16T17:09:19.819Z,9.74
2022-11-16T17:11:47.659Z,9.77
2022-11-16T17:14:14.476Z,9.69
2022-11-16T17:16:41.046Z,9.65
2022-11-16T17:19:07.562Z,9.71
2022-11-16T17:21:34.026Z,9.68
2022-11-16T17:24:00.441Z,9.66
2022-11-16T17:26:29.316Z,9.61
2022-11-16T17:28:57.545Z,9.52
2022-11-16T17:31:25.904Z,9.46
2022-11-16T17:33:52.678Z,9.42
2022-11-16T17:36:20.073Z,9.38
2022-11-16T17:38:46.723Z,9.23
2022-11-16T17:41:18.685Z,9.21
2022-11-16T17:43:46.295Z,9.22
2022-11-16T17:46:15.447Z,9.11
2022-11-16T17:48:43.461Z,9.10
2022-11-16T17:51:14.852Z,9.15
2022-11-16T17:53:44.144Z,9.11
2022-11-16T17:56:16.106Z,9.08
2022-11-16T17:58:43.018Z,9.01
2022-11-16T18:01:09.812Z,9.02
2022-11-16T18:03:37.255Z,8.73
2022-11-16T18:06:08.712Z,8.99
2022-11-16T18:08:36.278Z,8.99
2022-11-16T18:11:24.822Z,9.00
2022-11-16T18:14:00.340Z,8.86
2022-11-16T18:16:29.926Z,8.91
2022-11-16T18:19:02.276Z,8.94
2022-11-16T18:21:29.457Z,8.86
2022-11-16T18:23:58.047Z,8.88
2022-11-16T18:26:25.022Z,8.89
2022-11-16T18:28:52.683Z,8.84
2022-11-16T18:31:21.492Z,8.94
2022-11-16T18:33:51.380Z,8.76
2022-11-16T18:36:19.813Z,8.82
2022-11-16T18:38:46.756Z,8.87
2022-11-16T18:41:13.107Z,8.89
2022-11-16T18:43:40.567Z,8.87
2022-11-16T18:46:07.116Z,8.85
2022-11-16T18:48:33.674Z,8.79
2022-11-16T18:51:01.217Z,8.82
2022-11-16T18:53:29.515Z,8.85
2022-11-16T18:55:58.130Z,8.84
2022-11-16T18:58:49.183Z,8.77
2022-11-16T19:01:14.632Z,8.82
2022-11-16T19:03:41.528Z,8.82
2022-11-16T19:06:09.564Z,8.73
2022-11-16T19:08:38.012Z,8.75
2022-11-16T19:11:10.312Z,8.74
2022-11-16T19:13:37.402Z,8.61
2022-11-16T19:16:04.243Z,8.77
2022-11-16T19:18:30.823Z,8.74
2022-11-16T19:21:07.840Z,8.65
2022-11-16T19:23:47.656Z,8.71
2022-11-16T19:26:16.015Z,8.74
2022-11-16T19:28:44.842Z,8.68
2022-11-16T19:31:12.787Z,8.70
2022-11-16T19:33:42.868Z,8.69
2022-11-16T19:36:13.712Z,8.65
2022-11-16T19:38:40.559Z,8.63
2022-11-16T19:41:09.536Z,8.58
2022-11-16T19:43:36.262Z,8.63
2022-11-16T19:46:10.501Z,8.67
2022-11-16T19:48:37.477Z,8.60
2022-11-16T19:51:09.412Z,8.64
2022-11-16T19:53:36.805Z,8.51
2022-11-16T19:56:04.350Z,8.60
2022-11-16T19:58:31.989Z,8.57
2022-11-16T20:01:03.020Z,8.64
2022-11-16T20:03:30.377Z,8.57
2022-11-16T20:06:07.121Z,8.61
2022-11-16T20:08:33.563Z,8.53
2022-11-16T20:11:00.188Z,8.54
2022-11-16T20:13:28.274Z,8.53
2022-11-16T20:15:55.934Z,8.51
2022-11-16T20:18:22.413Z,8.51
2022-11-16T20:20:48.868Z,8.56
2022-11-16T20:23:15.615Z,8.51
2022-11-16T20:25:42.078Z,8.40
2022-11-16T20:28:09.448Z,8.52
2022-11-16T20:30:35.952Z,8.51
2022-11-16T20:33:02.378Z,8.48
2022-11-16T20:35:28.943Z,8.32
2022-11-16T20:37:55.398Z,8.32
2022-11-16T20:40:21.827Z,8.33
2022-11-16T20:42:48.285Z,8.31
2022-11-16T20:45:14.946Z,8.25
2022-11-16T20:47:41.389Z,8.27
2022-11-16T20:50:08.403Z,8.21
2022-11-16T20:52:38.260Z,8.16
2022-11-16T20:55:09.510Z,8.06
2022-11-16T20:57:35.924Z,8.13
2022-11-16T21:00:02.482Z,8.11
2022-11-16T21:02:29.206Z,8.07
2022-11-16T21:05:00.032Z,8.07
2022-11-16T21:07:27.032Z,8.04
2022-11-16T21:10:12.023Z,7.91
2022-11-16T21:12:56.926Z,8.03
2022-11-16T21:15:23.482Z,7.90
2022-11-16T21:17:49.862Z,7.90
2022-11-16T21:20:31.997Z,7.90
2022-11-16T21:22:58.426Z,7.87
2022-11-16T21:25:24.822Z,7.75
2022-11-16T21:27:51.326Z,7.74
2022-11-16T21:30:17.736Z,7.72
2022-11-16T21:32:44.155Z,7.78
2022-11-16T21:35:10.545Z,7.71
2022-11-16T21:37:36.977Z,7.67
2022-11-16T21:40:03.623Z,7.66
2022-11-16T21:42:30.095Z,7.68
2022-11-16T21:44:56.476Z,7.61
2022-11-16T21:47:22.982Z,7.58
2022-11-16T21:50:24.340Z,7.55
2022-11-16T21:52:36.087Z,7.61
2022-11-16T21:55:02.502Z,7.57
2022-11-16T21:57:29.034Z,7.59
2022-11-16T21:59:55.471Z,7.49
2022-11-16T22:02:21.902Z,7.53
2022-11-16T22:05:06.747Z,7.49
2022-11-16T22:07:33.289Z,7.53
2022-11-16T22:10:01.433Z,7.41
2022-11-16T22:12:29.117Z,7.41
2022-11-16T22:14:56.061Z,7.53
2022-11-16T22:17:22.586Z,7.36
2022-11-16T22:19:49.016Z,7.47
2022-11-16T22:22:15.549Z,7.38
2022-11-16T22:24:42.061Z,7.53
2022-11-16T22:27:08.519Z,7.47
2022-11-16T22:29:34.983Z,7.51
2022-11-16T22:32:01.477Z,7.41
2022-11-16T22:34:28.093Z,7.47
2022-11-16T22:36:57.263Z,7.53
2022-11-16T22:39:23.675Z,7.52
2022-11-16T22:41:50.122Z,7.49
2022-11-16T22:44:16.534Z,7.51
2022-11-16T22:46:42.925Z,7.41
2022-11-16T22:49:09.700Z,7.48
2022-11-16T22:51:36.205Z,7.47
2022-11-16T22:54:04.549Z,7.51
2022-11-16T22:56:32.906Z,7.50
2022-11-16T22:59:01.056Z,7.41
2022-11-16T23:01:27.488Z,7.48
2022-11-16T23:03:53.992Z,7.44
2022-11-16T23:06:20.442Z,7.49
2022-11-16T23:08:47.598Z,7.40
2022-11-16T23:11:35.167Z,7.47
2022-11-16T23:14:20.461Z,7.44
2022-11-16T23:16:47.284Z,7.46
2022-11-16T23:19:33.920Z,7.45
2022-11-16T23:22:18.937Z,7.38
2022-11-16T23:25:04.763Z,7.42
2022-11-16T23:27:45.799Z,7.44
2022-11-16T23:30:13.538Z,7.40
2022-11-16T23:32:41.288Z,7.34
2022-11-16T23:35:09.041Z,7.39
2022-11-16T23:38:01.369Z,7.35
2022-11-16T23:40:30.481Z,7.34
2022-11-16T23:43:16.124Z,7.36
2022-11-16T23:45:43.312Z,7.36
2022-11-16T23:48:11.800Z,7.38
2022-11-16T23:50:40.688Z,7.38
2022-11-16T23:53:08.988Z,7.37
2022-11-16T23:55:38.393Z,7.36
2022-11-16T23:58:05.805Z,7.32
